Aberdeen, United Kingdom

6:36 PM GMT on February 28, 2015 (GMT +0000)
Stoneywood | Change Station
CLOSE
Current Station
Personal Weather Station
Location: Aberdeen,
Elevation: 200 ft
Nearby Weather Stations

Elev 200 ft 57.19 °N, 2.18 °W | Updated 30 seconds ago

Light Rain
Light Rain
43.0 °F
Feels Like 37 °F
N
10.5
Wind Variable Wind from SSW
Gusts 15.0 mph

Today
High -- | Low -- °F
--% Chance of Precip.
Yesterday
High -- | Low -- °F
Precip. -- in
7:05 AM 5:38 PM
Waxing Gibbous, 79% visible
Pressure 29.06 in
Visibility 5.0 miles
Clouds Mostly Cloudy 800 ft
Windchill 37 °F
Dew Point 39 °F
Humidity 87%
Rainfall 0.00 in
Snow Depth Not available.
UV 0.0 out of 12
Pollen Not available.
Air Quality Not available.
Flu Activity Not available.
METAR EGPD 281820Z 18016KT 8000 -RA BKN008 06/05 Q0984 TEMPO RA BKN010

More Conditions Fewer Conditions

Pressure 29.06 in
Visibility 5.0 miles
Clouds Mostly Cloudy 800 ft
Windchill 37 °F
Dew Point 39 °F
Humidity 87%
Rainfall 0.00 in
Snow Depth Not available.
UV 0.0 out of 12
Pollen Not available.
Air Quality Not available.
Flu Activity Not available.
METAR EGPD 281820Z 18016KT 8000 -RA BKN008 06/05 Q0984 TEMPO RA BKN010

More Conditions Fewer Conditions

10-Day Weather Forecast

Almanac

Astronomy

Feb. 28, 2015 Rise Set
Actual Time
Civil Twilight
Nautical Twilight
Astronomical Twilight
Moon
Length of Visible Light
Length of Day
Tomorrow will be .
, % of the Moon is Illuminated

Today's Extremes

Country Highs Country Lows

Community

WunderPhotos

Upload Photos

1,801,106 photos uploaded!

WunderBlogs® & News

Nearby

Air Quality

  Air Quality AQ Index Pollutant
Not available.

Snow Depth

Station Depth Elevation

Earthquake Activity

City Distance Mag. Time & Date
Minimum magnitude displayed is 2.5.

Coastal Water Temperatures

Place Temperature

Nearby Weather Stations